Time;durP1;ratioP1;P1;durP2;ratioP2;P2;SDS_P1;SDS_P2;PMS_P1;PMS_P2;Temp;Humidity;BMP_temperature;BMP_pressure;BME280_temperature;BME280_humidity;BME280_pressure;Samples;Min_cycle;Max_cycle;Signal;HPM_P1;HPM_P2
2021/09/30 00:02:06;;;;;;;7.57;1.75;;;10.30;99.90;;;;;;5047941;28;20029;-47
2021/09/30 00:04:31;;;;;;;8.68;2.67;;;10.30;99.90;;;;;;5048271;28;20025;-49
2021/09/30 00:06:57;;;;;;;2.28;1.67;;;10.30;99.90;;;;;;5047148;28;20025;-48
2021/09/30 00:09:22;;;;;;;3.88;1.92;;;10.20;99.90;;;;;;5046559;28;20525;-48
2021/09/30 00:11:52;;;;;;;4.43;2.03;;;10.20;99.90;;;;;;5046713;28;20025;-49
2021/09/30 00:14:36;;;;;;;3.03;2.00;;;10.20;99.90;;;;;;5047571;28;20567;-50
2021/09/30 00:17:22;;;;;;;2.70;1.70;;;10.20;99.90;;;;;;5045724;28;20412;-48
2021/09/30 00:36:13;;;;;;;7.32;2.10;;;10.30;99.90;;;;;;5070713;28;20078;-47
2021/09/30 00:55:15;;;;;;;4.60;1.73;;;10.40;99.90;;;;;;5060303;28;20395;-47
2021/09/30 02:18:15;;;;;;;4.72;1.95;;;10.50;99.90;;;;;;5053899;28;20036;-48
2021/09/30 03:00:14;;;;;;;4.25;1.55;;;10.60;99.90;;;;;;5053574;28;20059;-49
2021/09/30 03:02:42;;;;;;;12.18;2.10;;;10.50;99.90;;;;;;5066788;28;20393;-48
2021/09/30 03:05:09;;;;;;;5.90;2.00;;;10.60;99.90;;;;;;5054088;28;20031;-48
2021/09/30 03:07:37;;;;;;;3.08;1.33;;;10.70;99.90;;;;;;5063034;28;20027;-47
2021/09/30 03:10:03;;;;;;;8.98;1.90;;;10.70;99.90;;;;;;5068303;28;20021;-50
2021/09/30 03:12:32;;;;;;;6.07;1.90;;;10.70;99.90;;;;;;5066723;28;20394;-47
2021/09/30 03:23:20;;;;;;;7.43;1.58;;;10.70;99.90;;;;;;5068188;28;20047;-47
2021/09/30 03:25:49;;;;;;;4.20;1.83;;;10.70;99.90;;;;;;5053074;28;20456;-48
2021/09/30 03:28:18;;;;;;;10.10;2.03;;;10.80;99.90;;;;;;5059113;28;20463;-49
2021/09/30 03:30:46;;;;;;;7.95;1.63;;;10.80;99.90;;;;;;5065358;28;20025;-47
2021/09/30 03:33:12;;;;;;;6.63;1.35;;;10.80;99.90;;;;;;5059911;28;20024;-47
2021/09/30 03:35:39;;;;;;;6.75;2.40;;;10.80;99.90;;;;;;5066663;28;20075;-50
2021/09/30 03:38:07;;;;;;;5.65;1.75;;;10.80;99.90;;;;;;5066112;28;20111;-48
2021/09/30 03:40:33;;;;;;;6.47;1.85;;;10.70;99.90;;;;;;5059652;28;20016;-47
2021/09/30 03:42:58;;;;;;;1.65;1.40;;;10.70;99.90;;;;;;5067972;28;20039;-48
2021/09/30 03:45:24;;;;;;;2.25;1.63;;;10.80;99.90;;;;;;5065212;28;20108;-47
2021/09/30 03:47:49;;;;;;;8.48;2.10;;;10.80;99.90;;;;;;5052523;28;20536;-48
2021/09/30 03:50:18;;;;;;;10.05;2.05;;;10.70;99.90;;;;;;5068251;28;20035;-47
2021/09/30 04:00:25;;;;;;;6.78;1.48;;;10.70;99.90;;;;;;5053892;28;20082;-48
2021/09/30 04:02:51;;;;;;;14.02;2.53;;;10.70;99.90;;;;;;5047149;28;20025;-49
2021/09/30 04:05:16;;;;;;;7.45;1.67;;;10.70;99.90;;;;;;5061713;28;20028;-47
2021/09/30 04:07:42;;;;;;;4.00;1.95;;;10.70;99.90;;;;;;5063525;28;20079;-47
2021/09/30 04:10:08;;;;;;;8.35;1.70;;;10.70;99.90;;;;;;5062947;28;20033;-47
2021/09/30 04:12:33;;;;;;;6.22;1.58;;;10.60;99.90;;;;;;5071462;28;20040;-48
2021/09/30 04:14:59;;;;;;;8.90;2.05;;;10.60;99.90;;;;;;5071189;28;20037;-48
2021/09/30 04:17:24;;;;;;;7.45;1.50;;;10.60;99.90;;;;;;5070604;28;20032;-47
2021/09/30 04:19:50;;;;;;;7.80;2.10;;;10.60;99.90;;;;;;5071287;28;20410;-50
2021/09/30 04:22:15;;;;;;;6.60;2.38;;;10.50;99.90;;;;;;5071015;28;20027;-47
2021/09/30 04:24:44;;;;;;;4.82;1.80;;;10.50;99.90;;;;;;5051506;28;20498;-48
2021/09/30 04:27:10;;;;;;;4.40;1.77;;;10.50;99.90;;;;;;5044856;28;20025;-47
2021/09/30 04:29:36;;;;;;;7.35;2.28;;;10.60;99.90;;;;;;5039941;28;20545;-51
2021/09/30 04:32:01;;;;;;;4.78;1.77;;;10.50;99.90;;;;;;5058976;28;20069;-49
2021/09/30 04:34:27;;;;;;;5.32;1.80;;;10.50;99.90;;;;;;5052427;28;20029;-48
2021/09/30 04:36:53;;;;;;;6.45;2.40;;;10.50;99.90;;;;;;5042720;28;20032;-48
2021/09/30 04:39:19;;;;;;;4.88;2.10;;;10.60;99.90;;;;;;5041211;28;20057;-49
2021/09/30 04:41:45;;;;;;;5.35;1.80;;;10.60;99.90;;;;;;5041765;28;20025;-49
2021/09/30 04:44:12;;;;;;;4.55;2.03;;;10.50;99.90;;;;;;5044918;28;20025;-48
2021/09/30 04:46:38;;;;;;;6.28;1.90;;;10.40;99.90;;;;;;5045091;28;20112;-48
2021/09/30 04:49:04;;;;;;;8.55;1.70;;;10.40;99.90;;;;;;5046820;28;20520;-51
2021/09/30 04:51:29;;;;;;;7.38;1.90;;;10.40;99.90;;;;;;5058787;28;20025;-48
2021/09/30 04:53:55;;;;;;;4.40;1.90;;;10.40;99.90;;;;;;5057204;28;20067;-50
2021/09/30 04:56:21;;;;;;;8.88;2.10;;;10.40;99.90;;;;;;5059507;28;20403;-50
2021/09/30 04:58:47;;;;;;;8.13;1.98;;;10.40;99.90;;;;;;5062726;28;20027;-48
2021/09/30 05:01:12;;;;;;;3.20;1.92;;;10.30;99.90;;;;;;5049993;28;20390;-49
2021/09/30 05:03:38;;;;;;;6.60;2.75;;;10.30;99.90;;;;;;5051783;28;20044;-49
2021/09/30 05:06:03;;;;;;;2.75;1.80;;;10.30;99.90;;;;;;5050710;28;20040;-48
2021/09/30 05:08:33;;;;;;;8.43;2.60;;;10.30;99.90;;;;;;5047478;28;20027;-48
2021/09/30 05:10:59;;;;;;;5.27;2.80;;;10.30;99.90;;;;;;5052398;28;20124;-49
2021/09/30 05:13:35;;;;;;;4.57;1.92;;;10.20;99.90;;;;;;5046082;28;20308;-48
2021/09/30 05:16:01;;;;;;;9.70;2.83;;;10.30;99.90;;;;;;5046523;28;20116;-48
2021/09/30 05:18:26;;;;;;;5.57;2.33;;;10.20;99.90;;;;;;5042865;28;20116;-51
2021/09/30 05:20:52;;;;;;;7.20;2.47;;;10.20;99.90;;;;;;5047695;28;20020;-49
2021/09/30 05:23:17;;;;;;;7.22;2.95;;;10.20;99.90;;;;;;5041028;28;20068;-51
2021/09/30 05:25:43;;;;;;;8.77;3.30;;;10.20;99.90;;;;;;5039867;28;20112;-51
2021/09/30 05:28:08;;;;;;;7.78;2.28;;;10.20;99.90;;;;;;5056035;28;20115;-50
2021/09/30 05:30:34;;;;;;;9.05;3.00;;;10.20;99.90;;;;;;5055619;28;20032;-48
2021/09/30 05:32:59;;;;;;;7.15;2.80;;;10.10;99.90;;;;;;5051513;28;20028;-46
2021/09/30 05:35:25;;;;;;;8.25;3.05;;;10.10;99.90;;;;;;5051340;28;20055;-49
2021/09/30 05:37:51;;;;;;;8.60;2.97;;;10.10;99.90;;;;;;5042906;28;20025;-46
2021/09/30 05:40:16;;;;;;;5.50;2.42;;;10.00;99.90;;;;;;5050680;28;20028;-47
2021/09/30 05:42:43;;;;;;;9.63;3.28;;;10.00;99.90;;;;;;5046240;28;20425;-47
2021/09/30 05:45:14;;;;;;;6.63;3.28;;;10.00;99.90;;;;;;5044454;28;20017;-45
2021/09/30 05:47:40;;;;;;;4.38;2.67;;;10.00;99.90;;;;;;5046269;28;20080;-49
2021/09/30 05:50:07;;;;;;;5.78;3.35;;;10.00;99.90;;;;;;5049147;28;20021;-49
2021/09/30 05:52:36;;;;;;;7.07;2.53;;;10.00;99.90;;;;;;5047674;28;20021;-49
2021/09/30 05:55:03;;;;;;;7.65;3.38;;;9.90;99.90;;;;;;5045561;28;20702;-50
2021/09/30 05:57:30;;;;;;;7.65;2.83;;;9.90;99.90;;;;;;5046010;28;20060;-49
2021/09/30 06:00:03;;;;;;;3.67;2.53;;;9.80;99.90;;;;;;5050913;28;20075;-47
2021/09/30 06:11:02;;;;;;;4.53;2.55;;;9.80;99.90;;;;;;5044218;28;20028;-47
2021/09/30 06:13:35;;;;;;;6.43;3.20;;;9.80;99.90;;;;;;5039723;28;20115;-47
2021/09/30 06:16:06;;;;;;;6.40;3.17;;;9.70;99.90;;;;;;5036885;28;20021;-49
2021/09/30 06:18:31;;;;;;;;;;;9.70;99.90;;;;;;5036375;28;20033;-48
2021/09/30 06:20:57;;;;;;;8.73;2.70;;;9.70;99.90;;;;;;5045366;28;19917;-49
2021/09/30 06:23:23;;;;;;;4.90;3.03;;;9.70;99.90;;;;;;5041282;28;20036;-48
2021/09/30 06:25:48;;;;;;;5.30;3.00;;;9.80;99.90;;;;;;5040904;28;20025;-47
2021/09/30 06:28:14;;;;;;;6.32;2.90;;;9.80;99.90;;;;;;5042638;28;20036;-48
2021/09/30 06:30:39;;;;;;;4.45;3.15;;;9.80;99.90;;;;;;5042098;28;20040;-47
2021/09/30 06:33:05;;;;;;;9.50;3.17;;;9.80;99.90;;;;;;5036097;28;20032;-46
2021/09/30 06:35:30;;;;;;;7.13;3.25;;;9.80;99.90;;;;;;5029921;28;20105;-49
2021/09/30 06:37:56;;;;;;;6.93;3.45;;;9.90;99.90;;;;;;5033292;28;20052;-49
2021/09/30 06:40:21;;;;;;;6.70;3.65;;;9.90;99.90;;;;;;5049871;28;20020;-49
2021/09/30 06:42:47;;;;;;;7.60;3.60;;;10.00;99.90;;;;;;5049451;28;20032;-49
2021/09/30 06:45:13;;;;;;;6.90;3.22;;;10.00;99.90;;;;;;5049683;28;20009;-49
2021/09/30 06:47:39;;;;;;;6.93;2.85;;;10.10;99.90;;;;;;5049286;28;20025;-50
2021/09/30 06:50:08;;;;;;;6.88;2.75;;;10.10;99.90;;;;;;5061254;28;20024;-51
2021/09/30 06:52:34;;;;;;;6.15;3.22;;;10.10;99.90;;;;;;5069582;28;20055;-47
2021/09/30 06:55:00;;;;;;;5.60;3.03;;;10.20;99.90;;;;;;5069111;28;20642;-48
2021/09/30 06:57:28;;;;;;;5.88;3.20;;;10.20;99.90;;;;;;5062203;28;20103;-50
2021/09/30 07:00:06;;;;;;;9.73;3.78;;;10.30;99.90;;;;;;5048960;28;20168;-49
2021/09/30 07:02:32;;;;;;;6.82;3.80;;;10.30;99.90;;;;;;5068043;28;20053;-47
2021/09/30 07:04:58;;;;;;;5.72;3.47;;;10.40;99.90;;;;;;5068276;28;20051;-48
2021/09/30 07:07:23;;;;;;;10.88;3.70;;;10.40;99.90;;;;;;5050996;28;20022;-48
2021/09/30 07:09:49;;;;;;;10.43;3.92;;;10.50;99.90;;;;;;5051200;28;20036;-48
2021/09/30 07:12:14;;;;;;;7.35;2.85;;;10.50;99.90;;;;;;5047183;28;20025;-48
2021/09/30 07:14:40;;;;;;;8.27;3.17;;;10.60;99.90;;;;;;5053131;28;20548;-48
2021/09/30 07:17:06;;;;;;;12.80;4.20;;;10.60;99.90;;;;;;5052420;28;20021;-48
2021/09/30 07:19:33;;;;;;;6.75;3.15;;;10.70;99.90;;;;;;5055286;28;20087;-49
2021/09/30 07:22:05;;;;;;;9.80;3.75;;;10.90;99.90;;;;;;5047681;28;20020;-48
2021/09/30 07:24:31;;;;;;;6.80;3.35;;;10.90;99.90;;;;;;5046413;28;20027;-50
2021/09/30 07:26:57;;;;;;;8.88;3.40;;;10.90;99.90;;;;;;5049723;28;20120;-47
2021/09/30 07:29:23;;;;;;;10.40;2.95;;;10.90;99.90;;;;;;5046382;28;20116;-47
2021/09/30 07:31:49;;;;;;;9.68;3.75;;;11.00;99.90;;;;;;5063476;28;20091;-49
2021/09/30 07:34:14;;;;;;;8.63;3.28;;;11.00;99.90;;;;;;5051907;28;20158;-50
2021/09/30 07:36:42;;;;;;;11.73;4.15;;;11.00;99.90;;;;;;5051313;28;20479;-47
2021/09/30 07:39:08;;;;;;;9.65;3.20;;;11.10;99.90;;;;;;5051634;28;20033;-48
2021/09/30 07:41:35;;;;;;;9.75;3.40;;;11.20;99.90;;;;;;5051491;28;20029;-48
2021/09/30 07:44:03;;;;;;;6.47;3.17;;;11.20;99.90;;;;;;5051466;28;20060;-48
2021/09/30 07:46:31;;;;;;;8.35;3.13;;;11.30;99.90;;;;;;5051647;28;20017;-48
2021/09/30 07:48:56;;;;;;;9.27;3.60;;;11.30;99.90;;;;;;5051597;28;20021;-48
2021/09/30 07:51:22;;;;;;;8.10;3.38;;;11.40;99.90;;;;;;5047419;28;20044;-48
2021/09/30 07:53:47;;;;;;;7.85;3.05;;;11.40;99.90;;;;;;5058140;28;20033;-49
2021/09/30 07:56:13;;;;;;;11.95;3.10;;;11.40;99.90;;;;;;5071889;28;20039;-48
2021/09/30 07:58:38;;;;;;;8.90;3.75;;;11.50;99.90;;;;;;5066088;28;20021;-48
2021/09/30 08:01:03;;;;;;;8.25;2.60;;;11.60;99.90;;;;;;5057992;28;20439;-50
2021/09/30 08:03:29;;;;;;;11.77;3.55;;;11.70;99.90;;;;;;5055974;28;20036;-48
2021/09/30 08:05:55;;;;;;;6.53;2.95;;;11.80;99.90;;;;;;5052193;28;20525;-48
2021/09/30 08:08:21;;;;;;;5.05;2.33;;;12.00;99.90;;;;;;5041949;28;20037;-49
2021/09/30 08:10:47;;;;;;;5.57;2.97;;;12.10;99.90;;;;;;5053718;28;20245;-48
2021/09/30 08:13:12;;;;;;;7.95;2.80;;;12.20;99.90;;;;;;5070714;28;20044;-50
2021/09/30 08:15:38;;;;;;;11.05;2.72;;;12.30;99.90;;;;;;5062788;28;20031;-49
2021/09/30 08:18:04;;;;;;;9.10;2.80;;;12.40;99.90;;;;;;5050409;28;20028;-48
2021/09/30 08:20:29;;;;;;;6.38;2.50;;;12.50;99.90;;;;;;5051137;28;20028;-49
2021/09/30 08:22:55;;;;;;;10.10;2.53;;;12.60;99.90;;;;;;5050409;28;20036;-49
2021/09/30 08:25:22;;;;;;;8.07;2.45;;;12.80;99.90;;;;;;5050843;28;20530;-48
2021/09/30 08:27:48;;;;;;;9.10;2.70;;;13.10;99.90;;;;;;5047915;28;20033;-48
2021/09/30 08:30:13;;;;;;;9.13;2.47;;;13.80;99.90;;;;;;5059794;28;20360;-49
2021/09/30 08:32:39;;;;;;;10.10;2.60;;;15.10;99.90;;;;;;5050722;28;20031;-50
2021/09/30 08:35:05;;;;;;;8.32;2.30;;;16.70;99.90;;;;;;5050594;28;20478;-49
2021/09/30 08:37:32;;;;;;;8.55;2.40;;;17.70;98.60;;;;;;5049594;28;20029;-50
2021/09/30 08:39:58;;;;;;;10.23;2.50;;;18.40;96.30;;;;;;5050550;28;20056;-49
2021/09/30 08:42:23;;;;;;;6.00;1.85;;;17.70;95.70;;;;;;5050566;28;20040;-51
2021/09/30 08:44:49;;;;;;;10.20;2.38;;;17.60;95.70;;;;;;5049834;28;20126;-50
2021/09/30 08:47:18;;;;;;;10.02;2.53;;;17.70;95.10;;;;;;5048675;28;20483;-50
2021/09/30 08:49:44;;;;;;;4.28;1.92;;;17.80;94.70;;;;;;5050592;28;20021;-49
2021/09/30 08:52:10;;;;;;;9.30;2.50;;;18.00;94.00;;;;;;5050283;28;20033;-50
2021/09/30 08:54:35;;;;;;;7.68;2.75;;;18.00;92.90;;;;;;5049437;28;20067;-52
2021/09/30 08:57:03;;;;;;;13.95;2.83;;;18.50;92.90;;;;;;5045017;28;20033;-51
2021/09/30 08:59:29;;;;;;;6.35;1.80;;;18.70;92.60;;;;;;5061384;28;20025;-48
2021/09/30 09:02:09;;;;;;;9.18;2.28;;;19.40;90.10;;;;;;5069932;28;20119;-50
2021/09/30 09:04:36;;;;;;;7.40;2.00;;;19.50;89.80;;;;;;5068813;28;20493;-51
2021/09/30 09:07:07;;;;;;;5.70;1.85;;;19.70;89.50;;;;;;5049500;28;20028;-51
2021/09/30 09:09:33;;;;;;;9.45;2.17;;;19.80;88.00;;;;;;5054328;28;20010;-51
2021/09/30 09:12:08;;;;;;;7.63;1.98;;;19.80;87.50;;;;;;5034549;28;20104;-51
2021/09/30 09:14:39;;;;;;;8.43;1.92;;;18.90;89.60;;;;;;5030020;28;20041;-49
2021/09/30 09:17:07;;;;;;;6.25;2.00;;;18.60;90.60;;;;;;5029363;28;20025;-51
2021/09/30 09:19:55;;;;;;;9.48;2.30;;;18.70;91.00;;;;;;5043596;28;20418;-49
2021/09/30 09:22:39;;;;;;;8.88;2.35;;;18.60;90.10;;;;;;5055849;28;20021;-52
2021/09/30 09:25:15;;;;;;;10.43;2.20;;;18.30;90.70;;;;;;5069998;28;20623;-49
2021/09/30 09:27:56;;;;;;;9.02;2.33;;;18.00;90.70;;;;;;5069226;28;20451;-48
2021/09/30 09:30:33;;;;;;;7.85;1.80;;;17.50;91.20;;;;;;5047669;28;20416;-50
2021/09/30 09:33:22;;;;;;;11.05;2.50;;;17.20;92.10;;;;;;5048191;28;20013;-48
2021/09/30 09:35:58;;;;;;;10.02;2.20;;;17.10;91.70;;;;;;5056288;28;20546;-48
2021/09/30 09:38:31;;;;;;;10.35;2.30;;;17.50;92.00;;;;;;5048653;28;20025;-48
2021/09/30 09:40:59;;;;;;;7.90;2.15;;;18.00;91.20;;;;;;5049569;28;20029;-48
2021/09/30 09:43:39;;;;;;;6.68;2.20;;;18.80;90.10;;;;;;5049448;28;20076;-51
2021/09/30 09:46:07;;;;;;;6.38;1.85;;;20.30;84.20;;;;;;5048784;28;20029;-48
2021/09/30 09:48:34;;;;;;;7.93;2.45;;;20.30;83.70;;;;;;5047804;28;20382;-51
2021/09/30 09:51:03;;;;;;;7.38;2.42;;;21.40;79.70;;;;;;5049245;28;20379;-50
2021/09/30 09:53:31;;;;;;;10.07;2.13;;;20.70;81.40;;;;;;5048942;28;20059;-50
2021/09/30 09:56:20;;;;;;;6.50;1.80;;;21.40;77.90;;;;;;5047548;28;20140;-50
2021/09/30 09:58:55;;;;;;;5.63;1.77;;;21.80;76.10;;;;;;5053714;28;20028;-50
2021/09/30 10:01:23;;;;;;;7.35;2.20;;;22.70;72.80;;;;;;5068845;28;20020;-49
2021/09/30 10:03:52;;;;;;;6.68;2.15;;;21.30;74.30;;;;;;5069026;28;20024;-50
2021/09/30 10:06:18;;;;;;;9.05;1.88;;;21.60;76.20;;;;;;5051699;28;20107;-50
2021/09/30 10:08:44;;;;;;;7.95;1.98;;;20.90;75.10;;;;;;5060327;28;20104;-51
2021/09/30 10:11:11;;;;;;;6.68;2.78;;;20.90;74.20;;;;;;5069995;28;20033;-49
2021/09/30 10:13:37;;;;;;;6.35;1.83;;;20.60;76.30;;;;;;5070005;28;20094;-49
2021/09/30 10:16:04;;;;;;;8.30;2.03;;;21.30;74.00;;;;;;5069989;28;20050;-51
2021/09/30 10:18:29;;;;;;;7.25;2.25;;;22.60;71.90;;;;;;5069651;28;20063;-51
2021/09/30 10:20:56;;;;;;;8.10;2.47;;;21.20;71.90;;;;;;5070017;28;20048;-51
2021/09/30 10:23:29;;;;;;;13.27;2.20;;;22.40;70.30;;;;;;5070258;28;20028;-51
2021/09/30 10:25:58;;;;;;;6.13;2.17;;;23.20;67.00;;;;;;5070107;28;20049;-47
2021/09/30 10:28:24;;;;;;;11.18;2.40;;;24.00;65.60;;;;;;5069552;28;20467;-48
2021/09/30 10:30:53;;;;;;;4.55;1.88;;;24.60;64.40;;;;;;5057279;28;20543;-49
2021/09/30 10:33:40;;;;;;;11.88;2.58;;;25.20;63.80;;;;;;5061566;28;20017;-49
2021/09/30 10:36:28;;;;;;;5.03;1.95;;;25.10;60.80;;;;;;5069652;28;20421;-48
2021/09/30 10:39:13;;;;;;;11.55;2.28;;;24.10;62.00;;;;;;5069451;28;20077;-47
2021/09/30 10:41:38;;;;;;;11.25;2.17;;;23.10;61.80;;;;;;5069901;28;20095;-47
2021/09/30 10:44:19;;;;;;;6.78;1.92;;;21.70;65.70;;;;;;5069997;28;20095;-51
2021/09/30 10:46:47;;;;;;;7.43;2.08;;;21.80;67.80;;;;;;5069133;28;20025;-51
2021/09/30 10:49:46;;;;;;;8.43;2.30;;;21.30;69.70;;;;;;5068754;28;20056;-49
2021/09/30 10:52:31;;;;;;;10.63;2.05;;;21.10;67.20;;;;;;5069907;28;20017;-48
2021/09/30 10:55:00;;;;;;;10.45;2.25;;;19.90;69.10;;;;;;5068742;28;20051;-48
2021/09/30 10:57:36;;;;;;;6.10;1.55;;;19.80;70.10;;;;;;5067893;28;20025;-48
2021/09/30 11:00:17;;;;;;;12.30;1.95;;;20.90;66.70;;;;;;5068093;28;20028;-49
2021/09/30 11:03:09;;;;;;;8.73;2.13;;;20.10;69.10;;;;;;5052616;28;20021;-49
2021/09/30 11:05:41;;;;;;;8.18;2.10;;;20.20;68.10;;;;;;5027834;28;20024;-50
2021/09/30 11:08:28;;;;;;;8.43;1.67;;;20.30;67.90;;;;;;5058475;28;20031;-47
2021/09/30 11:11:12;;;;;;;4.40;1.30;;;21.30;67.90;;;;;;5068153;28;20104;-47
2021/09/30 11:13:43;;;;;;;5.97;2.08;;;22.50;62.80;;;;;;5068162;28;20039;-47
2021/09/30 11:16:17;;;;;;;7.13;2.10;;;21.70;63.40;;;;;;5067843;28;20255;-47
2021/09/30 11:18:51;;;;;;;4.10;2.08;;;21.70;63.60;;;;;;5067788;28;20107;-49
2021/09/30 11:21:32;;;;;;;2.67;1.58;;;21.50;65.40;;;;;;5057245;28;20024;-47
2021/09/30 11:24:00;;;;;;;;;;;21.50;63.20;;;;;;5060374;28;20555;-49
2021/09/30 11:26:27;;;;;;;5.22;1.70;;;22.70;64.70;;;;;;5067283;28;19908;-47
2021/09/30 11:28:54;;;;;;;9.15;1.70;;;23.80;61.30;;;;;;5067763;28;20031;-49
2021/09/30 11:31:28;;;;;;;8.45;1.77;;;24.10;60.00;;;;;;5060764;28;20033;-45
2021/09/30 11:33:56;;;;;;;7.47;2.25;;;23.60;60.20;;;;;;5055557;28;20212;-45
2021/09/30 11:36:34;;;;;;;5.25;1.40;;;23.20;61.10;;;;;;5066507;28;20032;-45
2021/09/30 11:39:00;;;;;;;5.95;1.73;;;24.10;58.50;;;;;;5067383;28;20112;-45
2021/09/30 11:41:30;;;;;;;4.70;1.67;;;23.30;57.90;;;;;;5068222;28;20107;-45
2021/09/30 11:43:55;;;;;;;4.82;1.45;;;24.10;60.20;;;;;;5067754;28;20028;-47
2021/09/30 11:46:34;;;;;;;8.65;2.00;;;25.30;57.60;;;;;;5067325;28;20028;-47
2021/09/30 11:49:02;;;;;;;3.80;1.88;;;25.80;54.70;;;;;;5067334;28;20069;-45
2021/09/30 11:51:33;;;;;;;3.50;1.67;;;26.30;53.80;;;;;;5068207;28;20146;-48
2021/09/30 11:54:00;;;;;;;7.40;1.95;;;25.50;53.00;;;;;;5068462;28;20050;-45
2021/09/30 11:56:26;;;;;;;4.13;1.55;;;25.70;53.20;;;;;;5055867;28;20024;-45
2021/09/30 11:58:58;;;;;;;5.45;1.40;;;25.60;54.70;;;;;;5050126;28;20033;-44
2021/09/30 12:01:35;;;;;;;5.85;2.00;;;25.90;53.40;;;;;;5039090;28;20021;-45
2021/09/30 12:04:01;;;;;;;4.78;1.60;;;26.10;53.00;;;;;;5046111;28;20036;-46
2021/09/30 12:06:43;;;;;;;4.13;1.60;;;26.00;53.40;;;;;;5054822;28;20028;-46
2021/09/30 12:09:10;;;;;;;5.43;1.13;;;26.00;51.80;;;;;;5046325;28;20407;-45
2021/09/30 12:11:40;;;;;;;2.92;1.42;;;25.80;51.80;;;;;;5063562;28;20386;-45
2021/09/30 12:14:08;;;;;;;6.78;2.08;;;25.60;54.40;;;;;;5065584;28;20028;-45
2021/09/30 12:16:51;;;;;;;7.35;1.60;;;24.90;52.00;;;;;;5066016;28;20104;-45
2021/09/30 12:19:28;;;;;;;5.82;1.55;;;24.90;53.40;;;;;;5071207;28;20497;-45
2021/09/30 12:21:54;;;;;;;5.20;1.83;;;24.50;55.30;;;;;;5070952;28;20017;-44
2021/09/30 12:24:20;;;;;;;4.85;1.52;;;24.30;53.90;;;;;;5070249;28;20138;-44
2021/09/30 12:26:46;;;;;;;8.38;1.73;;;24.00;53.20;;;;;;5069751;28;20548;-45
2021/09/30 12:29:11;;;;;;;7.60;2.08;;;23.80;56.00;;;;;;5062965;28;20104;-47
2021/09/30 12:31:37;;;;;;;3.38;1.33;;;23.80;54.90;;;;;;5065511;28;20283;-48
2021/09/30 12:34:21;;;;;;;5.38;1.55;;;23.20;55.50;;;;;;5050388;28;20406;-45
2021/09/30 12:36:47;;;;;;;7.07;2.38;;;22.60;57.10;;;;;;5067639;28;20031;-48
2021/09/30 12:39:12;;;;;;;9.70;1.90;;;23.10;58.00;;;;;;5070887;28;20025;-47
2021/09/30 12:41:38;;;;;;;5.35;1.60;;;23.40;58.60;;;;;;5070853;28;20024;-47
2021/09/30 12:44:13;;;;;;;9.18;1.80;;;23.20;57.30;;;;;;5071016;28;20028;-50
2021/09/30 12:46:52;;;;;;;8.68;1.77;;;22.90;57.10;;;;;;5070142;28;20117;-48
2021/09/30 12:49:19;;;;;;;5.35;2.15;;;22.60;58.80;;;;;;5070565;28;20203;-50
2021/09/30 12:51:45;;;;;;;7.22;1.60;;;22.80;55.70;;;;;;5070857;28;20410;-48
2021/09/30 12:54:11;;;;;;;8.02;2.47;;;22.50;55.60;;;;;;5070628;28;20029;-48
2021/09/30 12:56:37;;;;;;;7.05;1.90;;;22.30;58.00;;;;;;5070207;28;20036;-47
2021/09/30 12:59:13;;;;;;;10.00;1.90;;;22.10;56.90;;;;;;5070031;28;20566;-47
2021/09/30 13:01:41;;;;;;;6.55;1.83;;;22.10;56.50;;;;;;5070374;28;20048;-50
2021/09/30 13:04:09;;;;;;;5.82;1.52;;;21.70;58.00;;;;;;5050737;28;20025;-47
2021/09/30 13:06:37;;;;;;;7.57;2.22;;;21.50;57.90;;;;;;5066009;28;20363;-46
2021/09/30 13:09:04;;;;;;;7.10;1.85;;;21.10;58.60;;;;;;5070128;28;20024;-47
2021/09/30 13:11:31;;;;;;;6.18;1.70;;;20.90;57.60;;;;;;5070420;28;20101;-49
2021/09/30 13:14:12;;;;;;;8.52;1.70;;;20.10;59.30;;;;;;5053550;28;20120;-51
2021/09/30 13:16:38;;;;;;;6.47;1.50;;;19.50;60.40;;;;;;5061218;28;20029;-47
2021/09/30 13:19:03;;;;;;;10.57;1.58;;;19.80;60.40;;;;;;5069815;28;20605;-47
2021/09/30 13:21:29;;;;;;;5.60;1.52;;;20.10;59.80;;;;;;5070209;28;20027;-47
2021/09/30 13:23:55;;;;;;;4.65;1.60;;;20.30;62.00;;;;;;5070017;28;20098;-47
2021/09/30 13:26:20;;;;;;;3.78;1.60;;;20.80;60.00;;;;;;5053897;28;20145;-49
2021/09/30 13:28:45;;;;;;;4.40;1.67;;;21.00;59.30;;;;;;5041939;28;20041;-47
2021/09/30 13:31:11;;;;;;;5.25;1.67;;;21.00;57.60;;;;;;5049133;28;20041;-49
2021/09/30 13:33:36;;;;;;;5.55;1.70;;;20.70;60.70;;;;;;5052992;28;20131;-48
2021/09/30 13:36:02;;;;;;;6.68;2.25;;;21.00;59.80;;;;;;5059865;28;20029;-46
2021/09/30 13:38:28;;;;;;;8.43;1.65;;;20.60;60.10;;;;;;5058705;28;20028;-48
2021/09/30 13:40:53;;;;;;;4.75;1.80;;;20.10;62.30;;;;;;5059508;28;20028;-47
2021/09/30 13:43:19;;;;;;;7.88;1.70;;;19.70;62.30;;;;;;5060776;28;20120;-47
2021/09/30 13:45:44;;;;;;;11.80;1.60;;;19.70;65.70;;;;;;5060792;28;20086;-48
2021/09/30 13:48:10;;;;;;;8.70;1.70;;;19.50;62.70;;;;;;5067804;28;20119;-47
2021/09/30 13:50:35;;;;;;;9.52;1.60;;;19.50;61.70;;;;;;5061261;28;20033;-48
2021/09/30 13:53:01;;;;;;;6.88;1.75;;;19.30;62.10;;;;;;5040128;28;20601;-46
2021/09/30 13:55:26;;;;;;;4.60;1.55;;;19.30;62.10;;;;;;5069044;28;20610;-47
2021/09/30 13:57:52;;;;;;;9.77;1.90;;;19.20;62.20;;;;;;5054709;28;20124;-47
2021/09/30 14:00:19;;;;;;;9.05;1.50;;;19.20;60.80;;;;;;5059097;28;20474;-47
2021/09/30 14:02:48;;;;;;;5.88;1.92;;;19.30;62.30;;;;;;5068984;28;20023;-47
2021/09/30 14:05:17;;;;;;;8.48;1.90;;;19.30;61.80;;;;;;5068598;28;20043;-47
2021/09/30 14:07:43;;;;;;;6.38;1.88;;;19.00;64.00;;;;;;5055490;28;20406;-50
2021/09/30 14:10:15;;;;;;;4.72;1.52;;;19.10;63.70;;;;;;5060732;28;20092;-46
2021/09/30 14:12:43;;;;;;;6.88;1.73;;;19.30;64.60;;;;;;5069631;28;20028;-48
2021/09/30 14:15:09;;;;;;;7.20;2.33;;;19.30;63.60;;;;;;5067696;28;20656;-47
2021/09/30 14:17:35;;;;;;;10.73;2.13;;;18.70;64.10;;;;;;5068548;28;20031;-48
2021/09/30 14:20:02;;;;;;;11.68;2.35;;;18.30;65.20;;;;;;5069057;28;20028;-48
2021/09/30 14:22:29;;;;;;;7.47;1.70;;;18.30;66.00;;;;;;5067710;28;20074;-48
2021/09/30 14:24:55;;;;;;;9.07;1.80;;;18.20;67.00;;;;;;5069309;28;20413;-47
2021/09/30 14:27:23;;;;;;;8.60;2.00;;;18.30;66.30;;;;;;5052597;28;20021;-50
2021/09/30 14:29:49;;;;;;;9.00;1.75;;;18.30;66.40;;;;;;5060460;28;20119;-46
2021/09/30 14:32:14;;;;;;;5.22;1.55;;;18.20;67.60;;;;;;5068116;28;20125;-49
2021/09/30 14:34:41;;;;;;;3.70;1.92;;;18.00;66.60;;;;;;5050630;28;20505;-47
2021/09/30 14:37:07;;;;;;;20.15;2.45;;;17.70;67.30;;;;;;5067112;28;20040;-49
2021/09/30 14:39:32;;;;;;;5.47;1.60;;;17.50;68.30;;;;;;5068424;28;20024;-47
2021/09/30 14:41:58;;;;;;;14.15;2.25;;;17.40;69.80;;;;;;5062957;28;20199;-49
2021/09/30 14:44:24;;;;;;;8.68;1.95;;;17.40;69.20;;;;;;5063574;28;20123;-49
2021/09/30 14:46:51;;;;;;;8.35;1.95;;;17.10;68.80;;;;;;5063681;28;20136;-49
2021/09/30 14:49:16;;;;;;;6.28;2.33;;;17.40;68.60;;;;;;5060981;28;20024;-48
2021/09/30 14:51:42;;;;;;;5.13;1.70;;;17.60;68.60;;;;;;5067344;28;20466;-47
2021/09/30 14:54:07;;;;;;;8.23;2.00;;;17.70;67.90;;;;;;5068734;28;20028;-48
2021/09/30 14:56:33;;;;;;;4.53;1.75;;;17.80;69.10;;;;;;5068395;28;20024;-46
2021/09/30 14:58:58;;;;;;;4.35;1.80;;;17.90;68.60;;;;;;5067747;28;20639;-47
2021/09/30 15:01:24;;;;;;;6.78;2.50;;;17.90;67.70;;;;;;5068760;28;20029;-47
2021/09/30 15:03:50;;;;;;;5.00;1.75;;;17.60;68.80;;;;;;5068528;28;20028;-48
2021/09/30 15:06:16;;;;;;;11.13;2.35;;;17.60;69.40;;;;;;5068052;28;20032;-47
2021/09/30 15:08:42;;;;;;;12.18;2.20;;;17.70;67.70;;;;;;5065757;28;20063;-48
2021/09/30 15:11:08;;;;;;;7.22;1.92;;;17.50;69.20;;;;;;5059916;28;20309;-46
2021/09/30 15:13:34;;;;;;;8.20;2.05;;;17.40;69.70;;;;;;5068281;28;20037;-46
2021/09/30 15:16:02;;;;;;;9.20;1.95;;;17.30;69.70;;;;;;5067004;28;20062;-45
2021/09/30 15:18:39;;;;;;;5.15;1.80;;;17.20;71.20;;;;;;5067614;28;20077;-48
2021/09/30 15:21:47;;;;;;;7.50;1.70;;;16.90;70.10;;;;;;5068478;28;20052;-49
2021/09/30 15:23:56;;;;;;;8.13;1.75;;;16.90;72.10;;;;;;5067728;28;20414;-46
2021/09/30 15:26:23;;;;;;;4.28;1.30;;;16.80;70.50;;;;;;5068018;28;20025;-46
2021/09/30 15:28:50;;;;;;;9.02;1.63;;;16.70;70.70;;;;;;5050096;28;20466;-47
2021/09/30 15:31:17;;;;;;;9.27;1.95;;;16.60;71.20;;;;;;5060971;28;20032;-47
2021/09/30 15:33:43;;;;;;;5.53;1.90;;;16.50;71.30;;;;;;5064126;28;20024;-46
2021/09/30 15:36:09;;;;;;;11.20;1.98;;;16.50;71.60;;;;;;5059470;28;20081;-46
2021/09/30 15:38:36;;;;;;;8.55;2.30;;;16.40;70.50;;;;;;5067660;28;20078;-49
2021/09/30 15:41:03;;;;;;;5.80;2.10;;;16.50;71.60;;;;;;5068037;28;20016;-46
2021/09/30 15:43:30;;;;;;;3.53;1.35;;;16.60;70.10;;;;;;5062504;28;20108;-47
2021/09/30 15:45:56;;;;;;;4.75;1.58;;;16.70;70.30;;;;;;5057500;28;20024;-46
2021/09/30 15:48:22;;;;;;;6.35;2.10;;;16.60;70.00;;;;;;5044285;28;20482;-49
2021/09/30 15:50:48;;;;;;;5.85;1.48;;;16.50;70.60;;;;;;5057205;28;20047;-45